createdAt,value
2023-04-05T00:02:51.624Z,10.73
2023-04-05T00:07:08.499Z,12.68
2023-04-05T00:11:21.326Z,14.02
2023-04-05T00:15:33.809Z,13.85
2023-04-05T00:19:46.221Z,14.73
2023-04-05T00:23:58.921Z,14.85
2023-04-05T00:28:12.583Z,15.20
2023-04-05T00:32:25.053Z,14.07
2023-04-05T00:36:37.566Z,12.65
2023-04-05T00:40:50.188Z,11.45
2023-04-05T00:45:04.306Z,11.80
2023-04-05T00:49:17.263Z,12.40
2023-04-05T00:53:29.896Z,12.20
2023-04-05T00:57:42.605Z,15.32
2023-04-05T01:02:06.914Z,12.43
2023-04-05T01:06:44.354Z,14.27
2023-04-05T01:11:00.930Z,12.40
2023-04-05T01:15:14.279Z,11.75
2023-04-05T01:19:30.230Z,13.60
2023-04-05T01:24:30.963Z,17.83
2023-04-05T01:29:20.449Z,14.93
2023-04-05T01:33:41.429Z,15.25
2023-04-05T01:38:00.107Z,14.02
2023-04-05T01:42:12.526Z,14.85
2023-04-05T01:46:26.019Z,17.73
2023-04-05T01:50:38.958Z,15.07
2023-04-05T01:54:51.784Z,14.70
2023-04-05T01:59:04.232Z,12.07
2023-04-05T02:03:17.431Z,9.85
2023-04-05T02:07:30.122Z,8.95
2023-04-05T02:11:42.651Z,10.85
2023-04-05T02:15:55.081Z,9.82
2023-04-05T02:20:12.667Z,10.52
2023-04-05T02:24:25.068Z,11.70
2023-04-05T02:28:37.577Z,9.70
2023-04-05T02:32:50.060Z,11.32
2023-04-05T02:37:03.197Z,9.80
2023-04-05T02:41:15.711Z,8.55
2023-04-05T02:45:28.604Z,7.30
2023-04-05T02:49:43.533Z,7.75
2023-04-05T02:53:56.575Z,6.82
2023-04-05T02:58:11.001Z,5.97
2023-04-05T03:02:29.256Z,7.05
2023-04-05T03:06:45.135Z,9.32
2023-04-05T03:10:58.972Z,9.00
2023-04-05T03:15:11.752Z,7.18
2023-04-05T03:19:27.754Z,6.78
2023-04-05T03:23:48.769Z,7.30
2023-04-05T03:28:06.738Z,7.78
2023-04-05T03:32:19.890Z,7.43
2023-04-05T03:36:46.090Z,6.40
2023-04-05T03:41:16.698Z,6.75
2023-04-05T03:45:32.273Z,7.25
2023-04-05T03:49:44.707Z,8.60
2023-04-05T03:53:57.286Z,6.85
2023-04-05T03:58:12.821Z,8.57
2023-04-05T04:02:26.150Z,7.63
2023-04-05T04:06:38.696Z,6.57
2023-04-05T04:10:51.465Z,8.30
2023-04-05T04:15:13.229Z,12.63
2023-04-05T04:19:30.575Z,12.93
2023-04-05T04:24:01.439Z,13.63
2023-04-05T04:33:09.686Z,9.85
2023-04-05T04:38:00.132Z,9.40
2023-04-05T04:42:26.148Z,9.10
2023-04-05T04:46:54.941Z,9.77
2023-04-05T04:51:26.703Z,12.13
2023-04-05T04:55:42.595Z,11.63
2023-04-05T04:59:55.165Z,11.07
2023-04-05T05:04:07.630Z,11.02
2023-04-05T05:08:22.335Z,11.60
2023-04-05T05:12:34.829Z,12.90
2023-04-05T05:16:47.337Z,13.07
2023-04-05T05:20:59.757Z,13.93
2023-04-05T05:25:12.671Z,15.48
2023-04-05T05:29:26.435Z,16.30
2023-04-05T05:33:38.968Z,17.98
2023-04-05T05:37:51.387Z,17.40
2023-04-05T05:42:03.978Z,17.55
2023-04-05T05:46:16.706Z,15.60
2023-04-05T05:50:33.181Z,15.27
2023-04-05T05:54:45.722Z,16.02
2023-04-05T05:58:59.733Z,17.13
2023-04-05T06:03:12.472Z,18.60
2023-04-05T06:07:25.104Z,20.17
2023-04-05T06:11:46.262Z,21.80
2023-04-05T06:16:02.968Z,19.48
2023-04-05T06:20:15.578Z,19.15
2023-04-05T06:24:32.129Z,19.88
2023-04-05T06:28:44.812Z,20.42
2023-04-05T06:32:57.768Z,20.85
2023-04-05T06:37:10.314Z,19.83
2023-04-05T06:41:22.730Z,18.85
2023-04-05T06:45:35.218Z,19.60
2023-04-05T06:49:47.718Z,18.90
2023-04-05T06:54:00.230Z,19.75
2023-04-05T06:58:12.635Z,18.60
2023-04-05T07:02:25.109Z,16.50
2023-04-05T07:06:39.456Z,16.40
2023-04-05T07:10:52.726Z,15.30
2023-04-05T07:15:05.836Z,15.50
2023-04-05T07:19:18.228Z,14.07
2023-04-05T07:23:31.376Z,12.50
2023-04-05T07:27:43.854Z,13.25
2023-04-05T07:31:56.373Z,11.93
2023-04-05T07:36:09.452Z,9.23
2023-04-05T07:40:21.876Z,8.10
2023-04-05T07:44:34.390Z,5.55
2023-04-05T07:48:50.009Z,4.65
2023-04-05T07:53:02.750Z,5.07
2023-04-05T07:57:19.174Z,4.43
2023-04-05T08:01:32.261Z,5.13
2023-04-05T08:05:44.679Z,6.13
2023-04-05T08:09:58.240Z,4.03
2023-04-05T08:14:11.104Z,6.97
2023-04-05T08:18:23.595Z,3.10
2023-04-05T08:22:36.071Z,3.05
2023-04-05T08:26:49.068Z,4.55
2023-04-05T08:31:01.843Z,5.88
2023-04-05T08:35:14.426Z,6.00
2023-04-05T08:39:27.246Z,8.18
2023-04-05T08:43:58.959Z,6.75
2023-04-05T08:48:11.512Z,5.22
2023-04-05T08:52:24.062Z,4.95
2023-04-05T08:56:37.038Z,3.78
2023-04-05T09:00:51.756Z,5.18
2023-04-05T09:05:09.290Z,4.38
2023-04-05T09:09:23.092Z,9.90
2023-04-05T09:13:35.757Z,12.23
2023-04-05T09:17:48.754Z,6.03
2023-04-05T09:22:08.477Z,8.23
2023-04-05T09:26:26.651Z,7.47
2023-04-05T09:30:48.469Z,8.15
2023-04-05T09:35:08.262Z,6.90
2023-04-05T09:39:29.450Z,11.48
2023-04-05T09:43:43.051Z,6.55
2023-04-05T09:47:58.614Z,6.07
2023-04-05T09:52:25.416Z,6.65
2023-04-05T09:56:42.348Z,11.30
2023-04-05T10:01:06.178Z,7.53
2023-04-05T10:05:28.996Z,8.88
2023-04-05T10:09:43.232Z,8.13
2023-04-05T10:13:55.869Z,6.03
2023-04-05T10:18:19.930Z,7.43
2023-04-05T10:22:53.212Z,6.47
2023-04-05T10:27:21.711Z,7.50
2023-04-05T10:31:58.960Z,3.53
2023-04-05T10:36:46.908Z,2.83
2023-04-05T10:41:16.868Z,4.20
2023-04-05T10:45:30.011Z,6.70
2023-04-05T10:49:50.165Z,4.32
2023-04-05T10:54:03.512Z,7.57
2023-04-05T10:58:16.939Z,6.18
2023-04-05T11:02:30.852Z,9.75
2023-04-05T11:06:48.138Z,8.60
2023-04-05T11:11:01.129Z,6.75
2023-04-05T11:15:32.040Z,8.80
2023-04-05T11:19:50.266Z,9.52
2023-04-05T11:24:12.233Z,7.07
2023-04-05T11:28:34.485Z,8.80
2023-04-05T11:32:46.936Z,6.28
2023-04-05T11:36:59.385Z,7.85
2023-04-05T11:41:18.521Z,8.95
2023-04-05T11:45:32.423Z,5.60
2023-04-05T11:49:50.801Z,6.70
2023-04-05T11:54:03.242Z,5.45
2023-04-05T11:58:21.604Z,5.72
2023-04-05T12:02:36.371Z,5.93
2023-04-05T12:06:49.532Z,10.05
2023-04-05T12:11:01.980Z,15.40
2023-04-05T12:15:15.529Z,11.85
2023-04-05T12:19:30.636Z,10.15
2023-04-05T12:23:43.373Z,13.05
2023-04-05T12:27:55.845Z,9.25
2023-04-05T12:32:08.302Z,12.00
2023-04-05T12:36:20.814Z,16.20
2023-04-05T12:40:36.002Z,14.05
2023-04-05T12:45:03.618Z,13.85
2023-04-05T12:49:18.109Z,11.95
2023-04-05T12:53:30.702Z,13.50
2023-04-05T12:57:43.480Z,11.45
2023-04-05T13:01:55.870Z,6.07
2023-04-05T13:06:08.324Z,10.38
2023-04-05T13:10:22.146Z,8.20
2023-04-05T13:14:34.625Z,6.88
2023-04-05T13:18:47.075Z,6.40
2023-04-05T13:22:59.543Z,7.28
2023-04-05T13:27:11.899Z,9.73
2023-04-05T13:31:24.466Z,10.05
2023-04-05T13:35:37.120Z,8.82
2023-04-05T13:39:49.539Z,10.30
2023-04-05T13:44:03.395Z,13.07
2023-04-05T13:48:16.869Z,10.82
2023-04-05T13:52:30.116Z,7.43
2023-04-05T13:56:42.814Z,13.70
2023-04-05T14:00:55.293Z,11.23
2023-04-05T14:05:08.698Z,8.52
2023-04-05T14:09:21.380Z,11.68
2023-04-05T14:13:35.728Z,8.80
2023-04-05T14:17:48.321Z,9.88
2023-04-05T14:22:00.903Z,8.90
2023-04-05T14:26:13.564Z,10.32
2023-04-05T14:30:26.458Z,9.70
2023-04-05T14:34:39.121Z,10.05
2023-04-05T14:38:51.533Z,8.30
2023-04-05T14:43:04.175Z,7.38
2023-04-05T14:47:16.761Z,3.13
2023-04-05T14:51:29.288Z,5.60
2023-04-05T14:55:41.805Z,4.95
2023-04-05T14:59:54.340Z,4.43
2023-04-05T15:04:08.883Z,5.85
2023-04-05T15:08:21.864Z,3.42
2023-04-05T15:12:34.351Z,4.00
2023-04-05T15:16:46.792Z,3.33
2023-04-05T15:21:00.125Z,4.05
2023-04-05T15:25:12.817Z,5.47
2023-04-05T15:29:25.746Z,4.82
2023-04-05T15:33:38.390Z,8.73
2023-04-05T15:37:50.985Z,6.50
2023-04-05T15:42:03.628Z,6.78
2023-04-05T15:46:16.097Z,7.25
2023-04-05T15:50:29.273Z,6.65
2023-04-05T15:54:41.762Z,6.50
2023-04-05T15:58:54.215Z,6.90
2023-04-05T16:03:06.757Z,8.07
2023-04-05T16:07:19.875Z,12.30
2023-04-05T16:11:32.342Z,11.75
2023-04-05T16:15:44.969Z,10.52
2023-04-05T16:19:57.591Z,7.43
2023-04-05T16:24:10.273Z,5.97
2023-04-05T16:28:22.853Z,5.10
2023-04-05T16:32:35.396Z,6.28
2023-04-05T16:36:48.443Z,6.80
2023-04-05T16:41:00.845Z,7.68
2023-04-05T16:45:13.327Z,7.95
2023-04-05T16:49:25.694Z,7.53
2023-04-05T16:53:38.229Z,13.57
2023-04-05T16:57:50.825Z,9.88
2023-04-05T17:02:03.410Z,9.10
2023-04-05T17:06:16.157Z,9.30
2023-04-05T17:10:28.924Z,9.57
2023-04-05T17:14:41.440Z,16.25
2023-04-05T17:18:53.897Z,13.95
2023-04-05T17:23:06.425Z,21.98
2023-04-05T17:27:18.896Z,19.30
2023-04-05T17:31:33.622Z,16.40
2023-04-05T17:35:46.214Z,15.50
2023-04-05T17:39:58.697Z,14.63
2023-04-05T17:44:11.213Z,10.20
2023-04-05T17:48:23.945Z,14.48
2023-04-05T17:52:36.391Z,11.93
2023-04-05T17:56:48.842Z,13.63
2023-04-05T18:01:01.761Z,17.77
2023-04-05T18:05:14.200Z,13.63
2023-04-05T18:09:28.244Z,16.83
2023-04-05T18:13:40.669Z,14.75
2023-04-05T18:17:53.168Z,18.58
2023-04-05T18:22:05.624Z,18.67
2023-04-05T18:26:18.866Z,21.67
2023-04-05T18:30:41.374Z,24.58
2023-04-05T18:34:53.861Z,19.27
2023-04-05T18:39:06.882Z,24.63
2023-04-05T18:43:19.468Z,40.70
2023-04-05T18:47:33.092Z,32.90
2023-04-05T18:51:49.034Z,32.72
2023-04-05T18:56:01.614Z,34.65
2023-04-05T19:00:14.433Z,30.35
2023-04-05T19:04:26.923Z,24.10
2023-04-05T19:08:40.406Z,23.48
2023-04-05T19:12:52.909Z,20.33
2023-04-05T19:17:06.974Z,18.27
2023-04-05T19:21:20.966Z,18.50
2023-04-05T19:25:33.354Z,13.88
2023-04-05T19:29:46.082Z,14.05
2023-04-05T19:33:59.526Z,18.38
2023-04-05T19:38:14.557Z,16.05
2023-04-05T19:42:27.027Z,14.70
2023-04-05T19:46:40.872Z,13.30
2023-04-05T19:50:56.295Z,14.20
2023-04-05T19:55:27.324Z,15.02
2023-04-05T19:59:40.152Z,17.65
2023-04-05T20:03:52.553Z,14.98
2023-04-05T20:08:07.746Z,17.08
2023-04-05T20:12:22.786Z,16.05
2023-04-05T20:16:37.683Z,18.25
2023-04-05T20:20:50.291Z,18.45
2023-04-05T20:25:34.138Z,15.13
2023-04-05T20:29:46.670Z,17.88
2023-04-05T20:34:11.868Z,18.13
2023-04-05T20:38:24.342Z,16.73
2023-04-05T20:42:37.733Z,13.23
2023-04-05T20:46:54.868Z,21.27
2023-04-05T20:51:08.588Z,25.25
2023-04-05T20:55:21.087Z,20.20
2023-04-05T20:59:33.523Z,18.33
2023-04-05T21:03:47.115Z,18.80
2023-04-05T21:08:01.460Z,22.83
2023-04-05T21:12:14.239Z,18.38
2023-04-05T21:16:26.740Z,17.90
2023-04-05T21:20:39.184Z,17.25
2023-04-05T21:24:51.492Z,16.55
2023-04-05T21:29:03.884Z,16.60
2023-04-05T21:33:18.397Z,12.45
2023-04-05T21:37:30.940Z,11.32
2023-04-05T21:41:43.412Z,13.38
2023-04-05T21:45:55.694Z,12.60
2023-04-05T21:50:10.512Z,13.40
2023-04-05T21:54:22.920Z,17.15
2023-04-05T21:58:35.530Z,12.68
2023-04-05T22:02:47.932Z,16.77
2023-04-05T22:07:00.665Z,15.15
2023-04-05T22:11:13.686Z,15.57
2023-04-05T22:15:26.073Z,17.17
2023-04-05T22:19:38.532Z,12.52
2023-04-05T22:23:51.136Z,14.52
2023-04-05T22:28:03.519Z,15.20
2023-04-05T22:32:16.341Z,13.98
2023-04-05T22:36:28.793Z,12.95
2023-04-05T22:40:41.284Z,14.93
2023-04-05T22:44:53.781Z,15.48
2023-04-05T22:49:06.708Z,12.82
2023-04-05T22:53:19.620Z,13.82
2023-04-05T22:57:32.020Z,13.65
2023-04-05T23:01:44.479Z,9.52
2023-04-05T23:05:57.028Z,9.57
2023-04-05T23:10:09.968Z,10.98
2023-04-05T23:14:22.354Z,9.10
2023-04-05T23:18:34.703Z,9.65
2023-04-05T23:22:48.293Z,9.88
2023-04-05T23:27:00.741Z,13.50
2023-04-05T23:31:13.200Z,12.25
2023-04-05T23:35:25.888Z,11.80
2023-04-05T23:39:38.345Z,9.77
2023-04-05T23:43:50.904Z,11.88
2023-04-05T23:48:03.417Z,13.00
2023-04-05T23:52:16.818Z,9.52
2023-04-05T23:56:29.218Z,8.68
